Kingfield, Maine
Current Conditions -  °F | °C
As of 9:35 AM on Thursday 18 Dec 2014 (Local Time) from KWVL Reporting Station
Overcast Overcast  
Wind Chill: -1°   Ceiling: 2400
Heat Index:   Visibility: 10mi
Dew Point: -1°   Wind: 7mph
Humidity: 81%   Direction: 310°NW
Pressure: 29.63"   Gusts: NA
Location:  44.96°N, 70.15°W
Report Text: KWVL 181435Z 31006KT 10SM OVC024 02/M01 A2963 RMK AO1
Loading
Personal Weather Stations






























Interactive Weather Map New forecast layout! Learn more

10-Day Weather Forecast

Advertisements
Track Severe Weather on mobile